Time;durP1;ratioP1;P1;durP2;ratioP2;P2;SDS_P1;SDS_P2;PMS_P1;PMS_P2;Temp;Humidity;BMP_temperature;BMP_pressure;BME280_temperature;BME280_humidity;BME280_pressure;Samples;Min_cycle;Max_cycle;Signal;HPM_P1;HPM_P2
2021/12/08 00:00:41;;;;;;;;;0.00;0.00;;;;;6.83;70.89;98874.66;5048053;28;45173;-90
2021/12/08 00:03:09;;;;;;;;;2.50;0.75;;;;;7.30;70.24;98960.69;5047184;28;45235;-92
2021/12/08 00:05:36;;;;;;;;;1.00;1.00;;;;;7.09;70.21;98918.97;5049039;28;45336;-91
2021/12/08 00:08:04;;;;;;;;;1.75;0.00;;;;;7.25;70.17;98972.94;5047229;28;45395;-91
2021/12/08 00:11:03;;;;;;;;;1.25;1.00;;;;;6.95;70.76;98897.25;5023019;28;45257;-95
2021/12/08 00:13:27;;;;;;;;;1.75;1.75;;;;;6.74;70.63;98890.44;5041768;28;45280;-91
2021/12/08 00:15:55;;;;;;;;;0.75;0.75;;;;;6.77;70.30;98893.03;5029216;28;45394;-92
2021/12/08 00:18:24;;;;;;;;;0.25;0.25;;;;;6.72;70.89;98886.97;5020893;28;45325;-79
2021/12/08 00:20:52;;;;;;;;;0.00;0.00;;;;;7.09;71.33;98953.00;5023101;28;45256;-80
2021/12/08 00:23:19;;;;;;;;;2.00;0.00;;;;;6.89;70.84;98916.50;5019285;28;45530;-80
2021/12/08 00:25:44;;;;;;;;;3.75;0.50;;;;;6.80;71.78;98903.50;5019693;28;46131;-82
2021/12/08 00:28:12;;;;;;;;;1.25;1.25;;;;;7.00;71.44;98932.13;5019387;28;45412;-80
2021/12/08 00:30:41;;;;;;;;;6.25;1.75;;;;;6.84;71.20;98918.28;5020587;28;45228;-80
2021/12/08 00:33:08;;;;;;;;;1.50;1.00;;;;;7.05;72.29;98953.91;5019563;28;45383;-79
2021/12/08 00:35:34;;;;;;;;;2.00;0.00;;;;;6.72;72.06;98905.28;5019234;28;45540;-80
2021/12/08 00:38:00;;;;;;;;;4.00;1.00;;;;;7.00;71.51;98950.47;5019508;28;45309;-84
2021/12/08 00:40:27;;;;;;;;;4.75;3.00;;;;;6.93;71.70;98940.91;5020605;28;45460;-83
2021/12/08 00:42:54;;;;;;;;;3.00;2.00;;;;;6.95;71.44;98949.59;5020235;28;45225;-81
2021/12/08 00:45:21;;;;;;;;;2.75;0.00;;;;;6.92;71.49;98960.97;5020885;28;46738;-81
2021/12/08 00:47:48;;;;;;;;;2.50;1.75;;;;;6.85;71.55;98965.38;5020813;28;45363;-79
2021/12/08 00:50:16;;;;;;;;;1.25;1.25;;;;;6.91;72.43;98990.66;5021239;28;45525;-80
2021/12/08 00:52:42;;;;;;;;;0.50;0.50;;;;;6.56;71.75;98939.38;5019941;28;45387;-80
2021/12/08 00:55:11;;;;;;;;;3.50;0.25;;;;;6.38;71.48;98907.22;5018256;28;46175;-81
2021/12/08 00:57:37;;;;;;;;;5.00;0.50;;;;;6.62;70.77;98942.84;5019417;28;45403;-83
2021/12/08 01:00:14;;;;;;;;;0.50;0.50;;;;;6.82;71.24;98993.31;5002790;28;45469;-80
2021/12/08 01:02:40;;;;;;;;;0.00;0.00;;;;;6.73;71.71;98986.38;5019125;28;45419;-81
2021/12/08 01:05:14;;;;;;;;;3.50;1.25;;;;;6.79;71.73;99001.16;5023109;28;45292;-82
2021/12/08 01:07:40;;;;;;;;;2.00;0.50;;;;;6.75;71.58;98989.00;5040751;28;45496;-79
2021/12/08 01:10:10;;;;;;;;;1.75;0.25;;;;;6.78;71.13;99007.28;5040904;28;45349;-80
2021/12/08 01:12:36;;;;;;;;;2.00;0.00;;;;;6.75;70.65;99005.56;5039509;28;45311;-80
2021/12/08 01:15:03;;;;;;;;;0.00;0.00;;;;;6.46;70.55;98949.91;5039987;28;45364;-79
2021/12/08 01:17:29;;;;;;;;;0.00;0.00;;;;;6.49;70.99;98963.81;5039821;28;45247;-81
2021/12/08 01:19:54;;;;;;;;;0.25;0.25;;;;;6.13;71.39;98898.63;5039278;28;45378;-81
2021/12/08 01:22:20;;;;;;;;;0.00;0.00;;;;;6.42;70.20;98967.38;5039202;28;45310;-80
2021/12/08 01:24:45;;;;;;;;;2.25;1.00;;;;;6.49;71.05;98974.28;5041697;28;45923;-79
2021/12/08 01:27:11;;;;;;;;;0.00;0.00;;;;;6.61;70.92;99004.78;5039125;28;45317;-80
2021/12/08 01:29:36;;;;;;;;;0.00;0.00;;;;;6.00;70.65;98880.38;5039189;28;45436;-80
2021/12/08 01:32:03;;;;;;;;;0.00;0.00;;;;;5.92;70.64;98874.31;5034334;28;45426;-80
2021/12/08 01:34:28;;;;;;;;;0.00;0.00;;;;;6.56;70.38;98955.06;5019908;28;46393;-79
2021/12/08 01:36:54;;;;;;;;;2.00;1.00;;;;;6.07;70.27;98901.28;5019703;28;45225;-80
2021/12/08 01:39:19;;;;;;;;;0.25;0.25;;;;;6.40;70.54;98939.47;5019038;28;45248;-80
2021/12/08 01:41:45;;;;;;;;;1.00;0.00;;;;;6.28;70.63;98924.69;5019005;28;45403;-80
2021/12/08 01:46:55;;;;;;;;;1.25;0.00;;;;;6.41;71.13;98962.13;5018065;28;45246;-80
2021/12/08 01:49:21;;;;;;;;;0.00;0.00;;;;;6.00;70.63;98905.66;5017480;28;45264;-82
2021/12/08 01:51:48;;;;;;;;;0.00;0.00;;;;;5.93;71.35;98922.22;5018851;28;45512;-81
2021/12/08 01:54:14;;;;;;;;;0.75;0.75;;;;;6.37;71.24;99016.19;5018627;28;45325;-80
2021/12/08 01:56:39;;;;;;;;;1.00;0.00;;;;;6.36;70.67;99027.53;5018653;28;45454;-79
2021/12/08 01:59:07;;;;;;;;;0.00;0.00;;;;;6.34;71.78;99005.75;5019720;28;45385;-82
2021/12/08 02:01:35;;;;;;;;;1.00;0.75;;;;;6.32;71.55;99015.31;5020778;28;45414;-82
2021/12/08 02:04:04;;;;;;;;;2.00;0.50;;;;;5.82;71.80;98934.41;5019284;28;46342;-79
2021/12/08 02:06:32;;;;;;;;;1.00;0.00;;;;;6.31;72.08;99026.66;5032708;28;45338;-80
2021/12/08 02:08:58;;;;;;;;;0.50;0.25;;;;;6.15;71.63;99004.94;5020718;28;45237;-80
2021/12/08 02:11:23;;;;;;;;;0.50;0.00;;;;;6.18;72.10;99010.16;5038889;28;45284;-79
2021/12/08 02:13:52;;;;;;;;;3.00;1.50;;;;;6.14;71.99;99002.31;5037453;28;47809;-81
2021/12/08 02:16:19;;;;;;;;;0.25;0.25;;;;;6.03;72.39;98988.41;5038541;28;45345;-82
2021/12/08 02:18:48;;;;;;;;;0.00;0.00;;;;;6.02;72.49;98991.88;5038582;28;45397;-81
2021/12/08 02:21:30;;;;;;;;;0.75;0.25;;;;;6.02;72.17;99038.94;5039225;28;45204;-80
2021/12/08 02:23:58;;;;;;;;;0.00;0.00;;;;;6.21;72.42;99064.16;5041867;28;46311;-86
2021/12/08 02:26:25;;;;;;;;;1.00;1.00;;;;;5.69;72.50;98985.84;5023833;28;45479;-83
2021/12/08 02:28:52;;;;;;;;;1.75;0.25;;;;;6.14;72.62;99065.03;5043384;28;45582;-81
2021/12/08 02:31:26;;;;;;;;;0.50;0.00;;;;;5.47;72.87;98956.22;5038127;28;45437;-84
2021/12/08 02:47:52;;;;;;;;;0.00;0.00;;;;;6.02;73.55;99047.66;5039270;28;45253;-89
2021/12/08 02:50:21;;;;;;;;;0.00;0.00;;;;;5.56;73.66;98977.13;5041663;28;45493;-92
2021/12/08 02:52:47;;;;;;;;;3.00;1.50;;;;;5.72;73.73;99017.16;5044510;28;45327;-82
2021/12/08 02:55:13;;;;;;;;;5.50;1.00;;;;;5.80;74.10;99020.66;5042226;28;46539;-90
2021/12/08 02:57:38;;;;;;;;;0.25;0.25;;;;;5.42;73.43;98982.38;5043469;28;45288;-85
2021/12/08 03:00:07;;;;;;;;;1.00;1.00;;;;;5.93;73.96;99066.81;5045764;28;45714;-83
2021/12/08 03:02:33;;;;;;;;;0.00;0.00;;;;;5.65;73.60;99018.03;5045376;28;45396;-89
2021/12/08 03:04:58;;;;;;;;;1.25;0.00;;;;;5.91;73.25;99058.13;5042437;28;46013;-84
2021/12/08 03:07:24;;;;;;;;;2.00;1.00;;;;;5.29;72.67;98945.78;5041100;28;45297;-82
2021/12/08 03:09:50;;;;;;;;;0.00;0.00;;;;;5.77;72.56;99030.22;5023899;28;45225;-83
2021/12/08 03:12:27;;;;;;;;;1.50;0.00;;;;;5.93;72.04;99050.28;5049033;28;45220;-80
2021/12/08 03:14:52;;;;;;;;;0.00;0.00;;;;;5.70;72.54;98998.03;5048715;28;45648;-90
2021/12/08 03:17:19;;;;;;;;;0.00;0.00;;;;;5.91;72.49;99039.81;5043043;28;45331;-91
2021/12/08 03:19:44;;;;;;;;;0.00;0.00;;;;;5.89;73.15;99046.78;5046579;28;45437;-88
2021/12/08 03:22:11;;;;;;;;;0.50;0.50;;;;;5.87;72.50;99038.06;5027485;28;45334;-89
2021/12/08 03:24:40;;;;;;;;;2.00;0.00;;;;;5.52;72.41;98972.78;5032739;28;45527;-90
2021/12/08 03:27:10;;;;;;;;;0.00;0.00;;;;;5.52;72.11;98966.69;5009984;28;45315;-92
2021/12/08 03:29:50;;;;;;;;;0.50;0.50;;;;;5.68;72.57;99003.25;5029042;28;45308;-87
2021/12/08 03:32:25;;;;;;;;;0.00;0.00;;;;;5.66;72.51;99004.09;5037211;28;45466;-89
2021/12/08 03:34:52;;;;;;;;;0.75;0.75;;;;;5.80;71.90;99007.59;5033496;28;46043;-89
2021/12/08 03:37:28;;;;;;;;;1.25;1.00;;;;;5.76;72.41;99011.06;5048571;28;45449;-87
2021/12/08 03:39:55;;;;;;;;;0.00;0.00;;;;;5.85;72.03;99023.25;5048223;28;45408;-87
2021/12/08 03:42:25;;;;;;;;;0.00;0.00;;;;;5.71;72.87;98995.41;5050015;28;44668;-88
2021/12/08 03:44:54;;;;;;;;;0.00;0.00;;;;;5.35;72.59;98946.69;5046293;28;45580;-82
2021/12/08 03:47:26;;;;;;;;;1.75;1.25;;;;;5.80;72.22;99030.22;5052727;28;45409;-81
2021/12/08 03:49:52;;;;;;;;;1.25;0.25;;;;;5.69;72.85;99007.59;5053544;28;45133;-85
2021/12/08 03:52:18;;;;;;;;;1.75;1.50;;;;;5.78;72.36;99011.94;5047922;28;45344;-87
2021/12/08 03:54:43;;;;;;;;;1.50;0.00;;;;;5.77;73.14;99014.53;5047144;28;45858;-86
2021/12/08 03:57:09;;;;;;;;;0.00;0.00;;;;;5.65;73.24;99004.97;5030693;28;45225;-85
2021/12/08 03:59:35;;;;;;;;;1.00;1.00;;;;;5.74;72.80;99020.66;5048816;28;44674;-87
2021/12/08 04:02:02;;;;;;;;;3.75;1.00;;;;;5.47;73.19;98977.13;5013103;28;45321;-84
2021/12/08 04:04:29;;;;;;;;;0.00;0.00;;;;;5.73;72.95;99024.13;5027833;28;46332;-90
2021/12/08 04:06:57;;;;;;;;;0.00;0.00;;;;;5.49;72.93;98983.25;5035100;28;45370;-85
2021/12/08 04:11:55;;;;;;;;;1.75;0.50;;;;;5.71;73.26;99008.47;5045783;28;44714;-82
2021/12/08 04:14:24;;;;;;;;;1.50;0.75;;;;;5.70;73.43;99030.25;5031055;28;45486;-82
2021/12/08 04:16:55;;;;;;;;;0.25;0.00;;;;;5.67;72.99;99022.38;5027819;28;45556;-86
2021/12/08 04:19:22;;;;;;;;;0.25;0.25;;;;;5.25;73.91;98955.38;5039191;28;45304;-85
2021/12/08 04:21:52;;;;;;;;;1.00;1.00;;;;;5.68;73.95;99029.38;5046293;28;45415;-82
2021/12/08 04:24:17;;;;;;;;;1.00;1.00;;;;;5.66;74.06;99015.41;5033159;28;45657;-85
2021/12/08 04:27:00;;;;;;;;;0.00;0.00;;;;;5.59;73.46;99002.38;5054558;28;45231;-86
2021/12/08 04:29:30;;;;;;;;;1.00;0.75;;;;;5.63;73.54;99004.97;5049798;28;45279;-83
2021/12/08 04:31:57;;;;;;;;;0.50;0.50;;;;;5.61;73.89;99014.56;5051180;28;44773;-86
2021/12/08 04:34:30;;;;;;;;;3.00;1.25;;;;;5.45;73.32;98997.16;5045628;28;46354;-82
2021/12/08 04:37:02;;;;;;;;;1.00;1.00;;;;;5.67;73.70;99039.78;5042340;28;45184;-82
2021/12/08 04:39:56;;;;;;;;;2.75;0.00;;;;;5.57;73.51;99011.94;5035133;28;45378;-85
2021/12/08 04:42:36;;;;;;;;;3.00;2.00;;;;;5.72;73.60;99030.22;4995845;28;45305;-82
2021/12/08 04:45:10;;;;;;;;;0.00;0.00;;;;;5.70;74.08;99026.75;5033972;28;45578;-81
2021/12/08 04:47:49;;;;;;;;;0.00;0.00;;;;;5.52;73.80;98998.91;5053024;28;45272;-80
2021/12/08 04:50:40;;;;;;;;;1.75;0.75;;;;;5.31;73.92;98972.81;5035144;28;45309;-85
2021/12/08 04:53:34;;;;;;;;;0.00;0.00;;;;;5.63;74.64;99027.63;5041176;28;45329;-88
2021/12/08 05:09:55;;;;;;;;;1.00;1.00;;;;;5.65;73.67;99052.00;5031170;28;45341;-83
2021/12/08 05:12:31;;;;;;;;;0.75;0.75;;;;;5.40;73.24;99001.53;5022562;28;45370;-79
2021/12/08 05:15:29;;;;;;;;;1.50;0.50;;;;;5.60;73.73;99027.63;4965826;28;45242;-84
2021/12/08 05:18:04;;;;;;;;;1.50;0.50;;;;;5.62;73.80;99065.94;4978654;28;45976;-84
2021/12/08 05:20:33;;;;;;;;;4.50;1.00;;;;;5.50;74.37;99045.03;4980035;28;45439;-84
2021/12/08 05:23:11;;;;;;;;;1.00;1.00;;;;;5.04;73.62;98978.88;4992229;28;45327;-83
2021/12/08 05:25:38;;;;;;;;;3.00;3.00;;;;;5.56;74.57;99065.91;5020400;28;45497;-83
2021/12/08 05:28:12;;;;;;;;;0.00;0.00;;;;;4.91;74.14;98958.81;5002532;28;47556;-86
2021/12/08 05:30:43;;;;;;;;;2.00;2.00;;;;;5.37;74.60;99046.75;5018604;28;45410;-82
2021/12/08 05:33:10;;;;;;;;;0.50;0.50;;;;;5.37;74.98;99053.72;5042257;28;44607;-90
2021/12/08 05:35:38;;;;;;;;;2.50;0.00;;;;;5.41;74.46;99079.84;5039402;28;44778;-84
2021/12/08 05:38:03;;;;;;;;;1.25;1.00;;;;;5.20;74.63;99045.84;5038278;28;45322;-90
2021/12/08 05:40:50;;;;;;;;;2.75;1.00;;;;;5.28;75.08;99077.19;5034625;28;45306;-87
2021/12/08 05:43:17;;;;;;;;;1.00;1.00;;;;;5.11;75.33;99038.00;5037429;28;44796;-83
2021/12/08 05:45:43;;;;;;;;;1.00;1.00;;;;;5.28;74.96;99074.59;5030544;28;45481;-82
2021/12/08 05:48:08;;;;;;;;;2.75;0.00;;;;;5.09;75.67;99058.03;5022446;28;45225;-85
2021/12/08 05:50:59;;;;;;;;;1.75;1.75;;;;;5.24;76.22;99076.34;5031342;28;45231;-85
2021/12/08 05:53:27;;;;;;;;;2.00;1.25;;;;;5.18;75.34;99059.78;5041905;28;45363;-82
2021/12/08 05:55:54;;;;;;;;;1.75;1.75;;;;;5.06;76.00;99052.81;5017719;28;45305;-85
2021/12/08 05:58:22;;;;;;;;;0.00;0.00;;;;;5.02;75.81;99031.03;5008144;28;45592;-88
2021/12/08 06:00:50;;;;;;;;;1.00;1.00;;;;;5.14;75.84;99072.84;5021575;28;45335;-84
2021/12/08 06:03:17;;;;;;;;;1.25;1.25;;;;;5.14;76.46;99067.63;5001019;28;45402;-88
2021/12/08 06:05:44;;;;;;;;;2.50;1.00;;;;;5.04;75.45;99039.75;5009639;28;45313;-85
2021/12/08 06:08:10;;;;;;;;;0.00;0.00;;;;;4.84;75.44;99007.53;5035495;28;45422;-86
2021/12/08 06:10:37;;;;;;;;;2.00;1.00;;;;;5.11;74.91;99038.00;5042517;28;45272;-82
2021/12/08 06:13:07;;;;;;;;;2.25;1.00;;;;;5.07;74.15;99028.44;5053204;28;45291;-87
2021/12/08 06:15:34;;;;;;;;;0.50;0.00;;;;;5.20;74.62;99047.59;5049077;28;45439;-93
2021/12/08 06:17:59;;;;;;;;;3.00;1.00;;;;;5.18;74.67;99058.03;5051030;28;46797;-87
2021/12/08 06:20:25;;;;;;;;;2.75;0.25;;;;;4.97;74.84;99019.72;5056771;28;45394;-87
2021/12/08 06:22:53;;;;;;;;;2.75;2.00;;;;;5.14;74.66;99054.56;5025804;28;45217;-83
2021/12/08 06:25:21;;;;;;;;;3.00;1.25;;;;;5.01;74.94;99026.69;5024207;28;45364;-85
2021/12/08 06:27:47;;;;;;;;;0.00;0.00;;;;;5.07;75.08;99052.81;5059149;28;45340;-86
2021/12/08 06:30:17;;;;;;;;;0.00;0.00;;;;;4.95;75.43;99042.34;5044695;28;45900;-84
2021/12/08 06:32:43;;;;;;;;;6.00;1.00;;;;;5.07;75.48;99071.06;5054433;28;45492;-84
2021/12/08 06:35:14;;;;;;;;;2.00;0.00;;;;;5.06;75.58;99073.69;5043930;28;45393;-80
2021/12/08 06:37:41;;;;;;;;;1.00;1.00;;;;;4.99;75.79;99067.56;5046480;28;45509;-83
2021/12/08 06:40:26;;;;;;;;;1.00;1.00;;;;;4.97;75.49;99082.34;5043747;28;45367;-78
2021/12/08 06:42:54;;;;;;;;;0.00;0.00;;;;;4.96;76.33;99093.66;5038153;28;45386;-78
2021/12/08 06:45:29;;;;;;;;;2.00;2.00;;;;;5.01;75.85;99104.97;5039386;28;45509;-80
2021/12/08 06:47:57;;;;;;;;;2.75;1.00;;;;;4.98;76.22;99094.53;5041546;28;46410;-78
2021/12/08 06:50:26;;;;;;;;;0.75;0.75;;;;;4.87;76.10;99080.59;5037512;28;45364;-79
2021/12/08 06:52:53;;;;;;;;;3.50;2.75;;;;;4.92;76.39;99091.88;5040586;28;45407;-86
2021/12/08 06:55:29;;;;;;;;;2.75;1.00;;;;;4.89;76.52;99083.19;5049518;28;45623;-79
2021/12/08 06:58:02;;;;;;;;;1.00;1.00;;;;;4.90;76.90;99077.97;5055941;28;46256;-79
2021/12/08 07:04:25;;;;;;;;;1.00;1.00;;;;;4.90;76.56;99079.72;5050026;28;45255;-84
2021/12/08 07:07:00;;;;;;;;;1.25;0.25;;;;;4.91;76.60;99077.09;5046930;28;45449;-80
2021/12/08 07:09:47;;;;;;;;;2.00;0.00;;;;;4.91;76.74;99095.38;5064289;28;47262;-84
2021/12/08 07:12:18;;;;;;;;;3.25;2.00;;;;;4.90;76.72;99072.75;5043195;28;45248;-81
2021/12/08 07:14:48;;;;;;;;;5.25;1.00;;;;;4.85;76.53;99056.22;5050627;28;45553;-83
2021/12/08 07:17:20;;;;;;;;;1.25;1.25;;;;;4.78;76.78;99055.34;5043591;28;45244;-83
2021/12/08 07:19:51;;;;;;;;;2.50;1.50;;;;;4.66;76.85;99034.44;5043445;28;45524;-79
2021/12/08 07:22:24;;;;;;;;;1.00;1.00;;;;;4.71;76.88;99055.28;5045793;28;45162;-79
2021/12/08 07:24:52;;;;;;;;;1.00;1.00;;;;;4.91;76.57;99095.38;5048078;28;45157;-81
2021/12/08 07:27:23;;;;;;;;;0.00;0.00;;;;;4.74;76.92;99073.56;5025938;28;45407;-88
2021/12/08 07:29:50;;;;;;;;;2.00;2.00;;;;;4.92;76.65;99093.63;5042062;28;45683;-80
2021/12/08 07:32:25;;;;;;;;;9.25;3.50;;;;;4.89;77.14;99091.03;5041746;28;45309;-85
2021/12/08 07:34:57;;;;;;;;;8.25;2.75;;;;;4.74;76.79;99061.38;5042458;28;45348;-86
2021/12/08 07:37:27;;;;;;;;;1.00;1.00;;;;;4.73;77.15;99056.16;5043058;28;45189;-86
2021/12/08 07:40:16;;;;;;;;;2.75;1.00;;;;;4.70;76.54;99049.22;5043134;28;45356;-90
2021/12/08 07:42:52;;;;;;;;;0.75;0.75;;;;;4.81;77.05;99080.53;5041991;28;45443;-81
2021/12/08 07:45:25;;;;;;;;;4.50;4.00;;;;;4.99;76.98;99104.09;5044654;28;45253;-82
2021/12/08 07:47:53;;;;;;;;;3.00;1.00;;;;;5.00;76.10;99112.78;5041776;28;45449;-85
2021/12/08 07:50:23;;;;;;;;;1.00;1.00;;;;;5.04;76.39;99125.00;5043261;28;46210;-91
2021/12/08 07:52:51;;;;;;;;;2.00;2.00;;;;;5.10;76.02;99141.53;5028785;28;45390;-81
2021/12/08 07:55:41;;;;;;;;;8.25;3.75;;;;;5.12;75.64;99139.84;5044347;28;45257;-80
2021/12/08 07:58:11;;;;;;;;;1.25;1.25;;;;;5.15;75.79;99139.84;5045883;28;45491;-80
2021/12/08 08:00:41;;;;;;;;;1.50;1.50;;;;;5.27;76.11;99149.44;5046630;28;46357;-78
2021/12/08 08:03:09;;;;;;;;;5.00;2.00;;;;;5.36;75.70;99143.38;5041969;28;45331;-80
2021/12/08 08:05:36;;;;;;;;;1.75;1.75;;;;;5.43;75.24;99156.44;5043722;28;45454;-80
2021/12/08 08:08:07;;;;;;;;;2.00;2.00;;;;;5.41;75.01;99129.47;5063453;28;44964;-84
2021/12/08 08:10:42;;;;;;;;;4.00;2.00;;;;;5.38;74.42;99112.91;5029682;28;47011;-87
2021/12/08 08:13:09;;;;;;;;;0.50;0.50;;;;;5.53;74.97;99141.66;5047394;28;45370;-81
2021/12/08 08:15:43;;;;;;;;;1.00;1.00;;;;;5.54;74.41;99143.41;5048744;28;45310;-79
2021/12/08 08:18:12;;;;;;;;;2.25;2.00;;;;;5.48;74.76;99130.31;5048458;28;45417;-79
2021/12/08 08:20:44;;;;;;;;;2.00;0.00;;;;;5.54;74.34;99137.31;5047852;28;46294;-82
2021/12/08 08:23:10;;;;;;;;;2.00;2.00;;;;;5.39;74.55;99118.13;5043248;28;45359;-79
2021/12/08 08:25:40;;;;;;;;;3.00;3.00;;;;;5.51;74.81;99132.97;5042709;28;45376;-82
2021/12/08 08:28:09;;;;;;;;;2.50;1.25;;;;;5.54;74.44;99129.47;5043950;28;45161;-83
2021/12/08 08:30:49;;;;;;;;;1.25;1.25;;;;;5.46;74.32;99121.63;5042018;28;45517;-83
2021/12/08 08:33:15;;;;;;;;;5.75;3.00;;;;;5.57;74.36;99161.69;5024443;28;45358;-84
2021/12/08 08:35:48;;;;;;;;;2.75;1.00;;;;;5.57;74.00;99146.00;5051643;28;45471;-80
2021/12/08 08:38:27;;;;;;;;;3.75;2.25;;;;;5.71;74.04;99167.81;5044124;28;45446;-86
2021/12/08 08:40:57;;;;;;;;;1.50;1.50;;;;;5.65;73.56;99152.13;5040907;28;46614;-86
2021/12/08 08:43:23;;;;;;;;;0.25;0.25;;;;;5.76;73.18;99170.44;5041473;28;45173;-83
2021/12/08 08:45:54;;;;;;;;;2.50;0.75;;;;;5.91;72.98;99167.00;5042857;28;45155;-83
2021/12/08 08:48:49;;;;;;;;;3.50;2.00;;;;;5.91;73.09;99165.28;5043523;28;45331;-79
2021/12/08 08:51:38;;;;;;;;;1.25;1.00;;;;;5.96;72.91;99174.00;5031678;28;45371;-85
2021/12/08 08:54:27;;;;;;;;;2.25;2.00;;;;;6.06;72.65;99168.78;5042413;28;45412;-85
2021/12/08 08:57:08;;;;;;;;;1.00;1.00;;;;;6.00;72.73;99167.00;4989962;28;45538;-84
2021/12/08 08:59:42;;;;;;;;;1.00;1.00;;;;;5.87;72.03;99155.66;4985038;28;45328;-88
2021/12/08 09:02:09;;;;;;;;;5.25;3.00;;;;;6.02;72.63;99153.94;5001416;28;45319;-86
2021/12/08 09:04:43;;;;;;;;;4.00;2.00;;;;;5.93;71.84;99131.28;5001018;28;45365;-89
2021/12/08 09:07:13;;;;;;;;;1.00;1.00;;;;;6.06;72.50;99161.81;5003339;28;45246;-81
2021/12/08 09:09:44;;;;;;;;;1.75;1.50;;;;;6.10;71.69;99160.91;5004660;28;45526;-80
2021/12/08 09:12:30;;;;;;;;;1.00;1.00;;;;;5.99;72.02;99133.91;5013655;28;46462;-85
2021/12/08 09:15:15;;;;;;;;;3.50;2.50;;;;;6.25;71.05;99175.75;5000713;28;45376;-86
2021/12/08 09:18:06;;;;;;;;;2.75;2.00;;;;;6.43;71.29;99185.31;5001808;28;45200;-88
2021/12/08 09:20:53;;;;;;;;;1.00;1.00;;;;;9.11;64.56;99159.13;4943499;28;45552;-90
2021/12/08 09:23:26;;;;;;;;;2.00;2.00;;;;;12.30;55.76;99179.72;4948772;28;47019;-79
2021/12/08 09:26:02;;;;;;;;;0.50;0.50;;;;;14.04;52.08;99174.81;4953398;28;45228;-80
2021/12/08 09:28:33;;;;;;;;;0.25;0.25;;;;;14.33;48.51;99176.53;4980780;28;45354;-84
2021/12/08 09:31:18;;;;;;;;;2.00;0.75;;;;;15.05;47.50;99179.38;4990537;28;45430;-85
2021/12/08 09:33:55;;;;;;;;;1.50;0.50;;;;;15.07;45.32;99181.06;4987779;28;46812;-81
2021/12/08 09:36:32;;;;;;;;;3.75;2.50;;;;;14.66;47.43;99179.00;4993095;28;45378;-79
2021/12/08 09:39:14;;;;;;;;;1.25;1.00;;;;;14.16;47.12;99192.13;4998420;28;44776;-80
2021/12/08 09:41:49;;;;;;;;;0.00;0.00;;;;;12.48;49.67;99170.47;4998997;28;45231;-85
2021/12/08 09:44:24;;;;;;;;;0.50;0.50;;;;;11.84;51.57;99199.25;4995811;28;45266;-81
2021/12/08 09:46:52;;;;;;;;;2.00;1.00;;;;;11.13;53.56;99201.59;4997138;28;45291;-78
2021/12/08 09:49:23;;;;;;;;;2.50;2.50;;;;;10.20;55.71;99211.97;4999080;28;44808;-80
2021/12/08 09:51:49;;;;;;;;;3.50;1.75;;;;;9.64;57.76;99218.91;4982701;28;45342;-80
2021/12/08 09:54:15;;;;;;;;;2.25;1.50;;;;;9.13;58.79;99196.78;4997543;28;45345;-80
2021/12/08 09:56:41;;;;;;;;;0.75;0.75;;;;;8.98;60.82;99213.56;5002161;28;45345;-79
2021/12/08 09:59:09;;;;;;;;;3.50;1.50;;;;;8.65;61.20;99216.53;5051712;28;45277;-80
2021/12/08 10:01:40;;;;;;;;;2.50;2.00;;;;;8.43;61.26;99193.09;5049781;28;45311;-79
2021/12/08 10:04:06;;;;;;;;;0.50;0.50;;;;;8.84;60.78;99195.34;5015128;28;46110;-78
2021/12/08 10:06:33;;;;;;;;;2.00;0.00;;;;;8.90;60.35;99183.88;5048562;28;45345;-79
2021/12/08 10:08:59;;;;;;;;;1.25;1.00;;;;;9.20;59.93;99143.25;5032745;28;45390;-78
2021/12/08 10:11:28;;;;;;;;;1.75;1.00;;;;;11.65;55.13;99195.25;5048321;28;45214;-78
2021/12/08 10:13:55;;;;;;;;;3.25;1.25;;;;;14.90;47.05;99194.06;5049151;28;46136;-78
2021/12/08 10:16:21;;;;;;;;;5.50;2.00;;;;;16.94;42.49;99187.03;5051179;28;45221;-81
2021/12/08 10:18:47;;;;;;;;;3.00;1.00;;;;;18.38;39.07;99171.44;5050848;28;45206;-81
2021/12/08 10:21:14;;;;;;;;;3.75;2.00;;;;;19.49;37.23;99185.31;5049390;28;45434;-80
2021/12/08 10:23:44;;;;;;;;;3.00;2.00;;;;;20.03;35.38;99191.31;5030170;28;46270;-79
2021/12/08 10:26:14;;;;;;;;;2.00;2.00;;;;;19.92;35.37;99158.03;5048554;28;45386;-79
2021/12/08 10:28:52;;;;;;;;;1.00;1.00;;;;;17.79;40.15;99137.06;5032094;28;45225;-83
2021/12/08 10:31:31;;;;;;;;;2.67;1.00;;;;;16.03;41.12;99150.03;5053755;28;45402;-79
2021/12/08 10:39:06;;;;;;;;;2.00;1.00;;;;;13.77;46.15;99196.84;5052040;28;45298;-80
2021/12/08 10:41:59;;;;;;;;;1.00;1.00;;;;;15.42;43.40;99308.06;5051302;28;45233;-79
2021/12/08 10:44:46;;;;;;;;;2.25;2.25;;;;;17.36;40.00;99334.19;5052157;28;45308;-79
2021/12/08 10:47:16;;;;;;;;;3.00;2.00;;;;;18.46;37.86;99345.25;5055824;22;45381;-81
2021/12/08 10:55:01;;;;;;;;;4.00;2.25;;;;;16.36;40.85;99123.00;5040266;28;45445;-81
2021/12/08 10:57:27;;;;;;;;;2.33;2.00;;;;;15.65;41.12;99151.56;5039763;28;45271;-80
2021/12/08 11:00:05;;;;;;;;;3.00;1.00;;;;;15.09;43.87;99152.72;5040109;28;45264;-80
2021/12/08 11:02:37;;;;;;;;;2.00;2.00;;;;;14.87;43.39;99161.47;5039845;28;45343;-80
2021/12/08 11:05:04;;;;;;;;;3.00;2.00;;;;;14.28;42.76;99083.09;5040093;28;46048;-81
2021/12/08 11:07:29;;;;;;;;;3.67;3.00;;;;;14.00;43.49;99067.28;5039901;28;45472;-81
2021/12/08 11:09:55;;;;;;;;;1.50;1.00;;;;;13.92;45.02;99091.34;5039818;28;45323;-80
2021/12/08 11:12:21;;;;;;;;;4.00;2.75;;;;;14.04;44.28;99137.75;5040138;28;45344;-80
2021/12/08 11:14:50;;;;;;;;;2.00;2.00;;;;;14.01;44.51;99155.53;5039625;28;45586;-81
2021/12/08 11:17:29;;;;;;;;;4.00;2.00;;;;;13.89;45.73;99138.25;5039858;28;45359;-80
2021/12/08 11:20:18;;;;;;;;;2.00;2.00;;;;;13.91;44.60;99163.75;5039536;28;45281;-81
2021/12/08 11:22:57;;;;;;;;;1.50;1.25;;;;;13.55;46.43;99154.28;5039580;28;45431;-80
2021/12/08 11:25:33;;;;;;;;;5.50;4.25;;;;;13.07;47.67;99094.84;5039130;28;46776;-81
2021/12/08 11:28:30;;;;;;;;;2.75;2.75;;;;;13.21;46.27;99164.97;5039087;28;45265;-81
2021/12/08 11:31:16;;;;;;;;;2.50;2.50;;;;;12.77;46.78;99122.13;5039780;28;45383;-81
2021/12/08 11:33:48;;;;;;;;;3.00;2.25;;;;;11.61;47.66;98964.97;5038992;28;45546;-79
2021/12/08 11:36:17;;;;;;;;;5.00;2.50;;;;;12.79;47.51;99157.31;5035864;28;46657;-81
2021/12/08 11:38:45;;;;;;;;;1.25;1.25;;;;;12.82;47.52;99167.78;5038205;28;45453;-79
2021/12/08 11:41:35;;;;;;;;;3.25;3.25;;;;;12.75;47.89;99163.56;5038307;28;45393;-81
2021/12/08 11:44:06;;;;;;;;;5.00;3.00;;;;;12.36;47.03;99142.56;5037609;28;45422;-78
2021/12/08 11:46:37;;;;;;;;;4.00;3.00;;;;;12.45;48.93;99166.09;5038714;28;45247;-77
2021/12/08 11:49:06;;;;;;;;;1.50;1.50;;;;;12.37;47.88;99146.06;5037472;28;45554;-74
2021/12/08 11:51:48;;;;;;;;;2.00;2.00;;;;;12.63;48.15;99167.41;5038993;28;45393;-79
2021/12/08 11:54:25;;;;;;;;;1.75;1.75;;;;;12.74;46.85;99169.75;5038796;28;45435;-81
2021/12/08 11:56:51;;;;;;;;;5.00;3.00;;;;;12.84;47.06;99171.25;5038617;28;46126;-82
2021/12/08 11:59:20;;;;;;;;;1.25;1.25;;;;;12.78;47.37;99163.50;5038943;28;45310;-81
2021/12/08 12:01:47;;;;;;;;;3.00;1.75;;;;;12.61;47.65;99149.88;5038717;28;45464;-80
2021/12/08 12:04:13;;;;;;;;;2.00;2.00;;;;;12.49;47.93;99169.56;5038147;28;45441;-78
2021/12/08 12:06:42;;;;;;;;;3.50;2.50;;;;;12.31;48.08;99162.97;5053991;28;46000;-79
2021/12/08 12:09:09;;;;;;;;;0.50;0.50;;;;;12.16;48.08;99148.34;5038768;28;45484;-76
2021/12/08 12:11:35;;;;;;;;;2.00;2.00;;;;;12.40;48.02;99180.34;5038442;28;45488;-79
2021/12/08 12:14:01;;;;;;;;;3.00;3.00;;;;;12.23;48.35;99130.59;5038846;28;45531;-75
2021/12/08 12:16:28;;;;;;;;;2.00;2.00;;;;;12.16;48.28;99139.56;5038266;28;45428;-79
2021/12/08 12:19:01;;;;;;;;;2.00;2.00;;;;;11.92;47.85;99118.16;5039194;28;45428;-79
2021/12/08 12:21:58;;;;;;;;;2.00;2.00;;;;;11.98;49.24;99189.25;5036471;28;45493;-78
2021/12/08 12:24:48;;;;;;;;;0.75;0.75;;;;;11.70;49.05;99183.69;5023592;28;45420;-80
2021/12/08 12:28:05;;;;;;;;;3.00;1.00;;;;;11.39;49.02;99183.50;5036229;28;46783;-80
2021/12/08 12:30:51;;;;;;;;;4.50;3.00;;;;;10.95;49.56;99123.75;4958086;28;45267;-83
2021/12/08 12:33:18;;;;;;;;;2.00;2.00;;;;;11.27;50.58;99196.06;4960404;28;45380;-81
2021/12/08 12:35:53;;;;;;;;;2.00;2.00;;;;;11.41;49.96;99212.44;4976792;28;45450;-81
2021/12/08 12:38:33;;;;;;;;;4.25;4.25;;;;;10.31;51.12;99006.53;4973743;28;45491;-78
2021/12/08 12:40:59;;;;;;;;;2.00;2.00;;;;;11.59;49.91;99198.00;4977079;28;45473;-80
2021/12/08 12:43:38;;;;;;;;;4.00;2.00;;;;;11.90;49.72;99216.72;4975347;28;45519;-79
2021/12/08 12:46:12;;;;;;;;;3.00;2.75;;;;;11.95;50.09;99234.19;4976540;28;45296;-79